sensor_id;sensor_type;location;lat;lon;timestamp;temperature;humidity
57576;DHT22;43412;-33.800;150.804;2022-11-23T00:03:41;27.50;76.50
57576;DHT22;43412;-33.800;150.804;2022-11-23T00:06:08;27.60;74.10
57576;DHT22;43412;-33.800;150.804;2022-11-23T00:08:35;27.60;73.00
57576;DHT22;43412;-33.800;150.804;2022-11-23T00:11:02;27.50;73.10
57576;DHT22;43412;-33.800;150.804;2022-11-23T00:13:28;27.30;76.30
57576;DHT22;43412;-33.800;150.804;2022-11-23T00:15:55;27.50;76.20
57576;DHT22;43412;-33.800;150.804;2022-11-23T00:18:22;27.80;74.50
57576;DHT22;43412;-33.800;150.804;2022-11-23T00:20:48;28.20;74.90
57576;DHT22;43412;-33.800;150.804;2022-11-23T00:23:15;28.30;74.60
57576;DHT22;43412;-33.800;150.804;2022-11-23T00:25:45;28.50;74.20
57576;DHT22;43412;-33.800;150.804;2022-11-23T00:28:11;28.60;73.90
57576;DHT22;43412;-33.800;150.804;2022-11-23T00:30:38;28.80;74.10
57576;DHT22;43412;-33.800;150.804;2022-11-23T00:33:05;28.80;72.60
57576;DHT22;43412;-33.800;150.804;2022-11-23T00:35:31;28.90;74.60
57576;DHT22;43412;-33.800;150.804;2022-11-23T00:37:58;29.10;73.80
57576;DHT22;43412;-33.800;150.804;2022-11-23T00:40:25;29.30;73.50
57576;DHT22;43412;-33.800;150.804;2022-11-23T00:42:51;29.40;73.80
57576;DHT22;43412;-33.800;150.804;2022-11-23T00:45:18;29.50;73.50
57576;DHT22;43412;-33.800;150.804;2022-11-23T00:47:45;29.30;70.90
57576;DHT22;43412;-33.800;150.804;2022-11-23T00:50:11;29.30;72.20
57576;DHT22;43412;-33.800;150.804;2022-11-23T00:52:38;29.40;73.40
57576;DHT22;43412;-33.800;150.804;2022-11-23T00:55:05;29.60;73.90
57576;DHT22;43412;-33.800;150.804;2022-11-23T00:57:32;29.70;73.00
57576;DHT22;43412;-33.800;150.804;2022-11-23T00:59:59;29.80;72.20
57576;DHT22;43412;-33.800;150.804;2022-11-23T01:02:26;30.00;74.20
57576;DHT22;43412;-33.800;150.804;2022-11-23T01:04:52;30.30;74.20
57576;DHT22;43412;-33.800;150.804;2022-11-23T01:07:19;30.50;72.40
57576;DHT22;43412;-33.800;150.804;2022-11-23T01:09:46;30.50;72.70
57576;DHT22;43412;-33.800;150.804;2022-11-23T01:12:12;30.60;74.30
57576;DHT22;43412;-33.800;150.804;2022-11-23T01:14:39;30.90;73.70
57576;DHT22;43412;-33.800;150.804;2022-11-23T01:17:06;30.90;72.50
57576;DHT22;43412;-33.800;150.804;2022-11-23T01:19:32;31.20;72.30
57576;DHT22;43412;-33.800;150.804;2022-11-23T01:21:59;31.30;69.90
57576;DHT22;43412;-33.800;150.804;2022-11-23T01:24:26;31.40;72.60
57576;DHT22;43412;-33.800;150.804;2022-11-23T01:26:53;31.20;69.80
57576;DHT22;43412;-33.800;150.804;2022-11-23T01:29:23;31.10;69.30
57576;DHT22;43412;-33.800;150.804;2022-11-23T01:31:49;30.90;69.30
57576;DHT22;43412;-33.800;150.804;2022-11-23T01:34:16;30.60;71.20
57576;DHT22;43412;-33.800;150.804;2022-11-23T01:36:43;30.50;70.80
57576;DHT22;43412;-33.800;150.804;2022-11-23T01:39:10;30.70;71.80
57576;DHT22;43412;-33.800;150.804;2022-11-23T01:41:38;31.00;71.10
57576;DHT22;43412;-33.800;150.804;2022-11-23T01:44:25;31.00;68.80
57576;DHT22;43412;-33.800;150.804;2022-11-23T01:46:52;31.10;70.00
57576;DHT22;43412;-33.800;150.804;2022-11-23T01:49:19;31.40;70.10
57576;DHT22;43412;-33.800;150.804;2022-11-23T01:51:47;31.50;71.10
57576;DHT22;43412;-33.800;150.804;2022-11-23T01:54:25;31.70;70.60
57576;DHT22;43412;-33.800;150.804;2022-11-23T01:56:54;31.50;69.30
57576;DHT22;43412;-33.800;150.804;2022-11-23T01:59:22;30.70;67.80
57576;DHT22;43412;-33.800;150.804;2022-11-23T02:01:50;30.40;71.50
57576;DHT22;43412;-33.800;150.804;2022-11-23T02:04:39;30.50;70.00
57576;DHT22;43412;-33.800;150.804;2022-11-23T02:07:04;30.70;71.50
57576;DHT22;43412;-33.800;150.804;2022-11-23T02:09:31;31.20;70.40
57576;DHT22;43412;-33.800;150.804;2022-11-23T02:11:58;31.30;69.40
57576;DHT22;43412;-33.800;150.804;2022-11-23T02:14:25;31.80;71.00
57576;DHT22;43412;-33.800;150.804;2022-11-23T02:16:53;32.20;71.80
57576;DHT22;43412;-33.800;150.804;2022-11-23T02:19:24;32.30;70.30
57576;DHT22;43412;-33.800;150.804;2022-11-23T02:21:55;32.50;68.30
57576;DHT22;43412;-33.800;150.804;2022-11-23T02:24:23;32.70;70.70
57576;DHT22;43412;-33.800;150.804;2022-11-23T02:26:51;32.60;66.80
57576;DHT22;43412;-33.800;150.804;2022-11-23T02:29:22;31.60;65.40
57576;DHT22;43412;-33.800;150.804;2022-11-23T02:31:49;31.00;69.70
57576;DHT22;43412;-33.800;150.804;2022-11-23T02:34:16;30.80;68.20
57576;DHT22;43412;-33.800;150.804;2022-11-23T02:36:47;31.00;68.20
57576;DHT22;43412;-33.800;150.804;2022-11-23T02:39:20;31.10;66.60
57576;DHT22;43412;-33.800;150.804;2022-11-23T02:41:48;31.20;70.00
57576;DHT22;43412;-33.800;150.804;2022-11-23T02:47:18;31.80;69.70
57576;DHT22;43412;-33.800;150.804;2022-11-23T02:49:45;32.30;69.90
57576;DHT22;43412;-33.800;150.804;2022-11-23T02:52:13;32.50;69.70
57576;DHT22;43412;-33.800;150.804;2022-11-23T02:54:40;32.60;69.40
57576;DHT22;43412;-33.800;150.804;2022-11-23T02:57:06;32.80;70.50
57576;DHT22;43412;-33.800;150.804;2022-11-23T02:59:34;32.90;70.60
57576;DHT22;43412;-33.800;150.804;2022-11-23T03:02:02;32.60;64.70
57576;DHT22;43412;-33.800;150.804;2022-11-23T03:04:29;32.50;68.40
57576;DHT22;43412;-33.800;150.804;2022-11-23T03:06:56;32.50;67.90
57576;DHT22;43412;-33.800;150.804;2022-11-23T03:09:23;32.80;68.00
57576;DHT22;43412;-33.800;150.804;2022-11-23T03:11:51;32.90;66.80
57576;DHT22;43412;-33.800;150.804;2022-11-23T03:14:18;33.20;67.10
57576;DHT22;43412;-33.800;150.804;2022-11-23T03:16:44;33.30;68.20
57576;DHT22;43412;-33.800;150.804;2022-11-23T03:19:11;33.30;68.00
57576;DHT22;43412;-33.800;150.804;2022-11-23T03:21:38;32.80;66.80
57576;DHT22;43412;-33.800;150.804;2022-11-23T03:24:05;32.30;64.80
57576;DHT22;43412;-33.800;150.804;2022-11-23T03:26:32;32.20;65.70
57576;DHT22;43412;-33.800;150.804;2022-11-23T03:28:58;32.10;67.40
57576;DHT22;43412;-33.800;150.804;2022-11-23T03:31:25;31.80;66.80
57576;DHT22;43412;-33.800;150.804;2022-11-23T03:33:52;31.80;66.20
57576;DHT22;43412;-33.800;150.804;2022-11-23T03:36:19;31.70;66.30
57576;DHT22;43412;-33.800;150.804;2022-11-23T03:38:45;31.40;66.50
57576;DHT22;43412;-33.800;150.804;2022-11-23T03:41:12;30.70;66.60
57576;DHT22;43412;-33.800;150.804;2022-11-23T03:43:39;30.70;67.60
57576;DHT22;43412;-33.800;150.804;2022-11-23T03:46:06;30.70;68.80
57576;DHT22;43412;-33.800;150.804;2022-11-23T03:48:32;30.70;69.00
57576;DHT22;43412;-33.800;150.804;2022-11-23T03:50:59;31.10;66.70
57576;DHT22;43412;-33.800;150.804;2022-11-23T03:53:29;31.60;68.20
57576;DHT22;43412;-33.800;150.804;2022-11-23T03:55:56;32.10;65.50
57576;DHT22;43412;-33.800;150.804;2022-11-23T03:58:23;32.50;66.50
57576;DHT22;43412;-33.800;150.804;2022-11-23T04:00:50;32.80;67.90
57576;DHT22;43412;-33.800;150.804;2022-11-23T04:03:18;33.20;66.80
57576;DHT22;43412;-33.800;150.804;2022-11-23T04:05:45;33.30;65.20
57576;DHT22;43412;-33.800;150.804;2022-11-23T04:08:17;32.90;63.70
57576;DHT22;43412;-33.800;150.804;2022-11-23T04:10:44;32.30;64.40
57576;DHT22;43412;-33.800;150.804;2022-11-23T04:13:11;31.90;63.40
57576;DHT22;43412;-33.800;150.804;2022-11-23T04:15:42;31.90;63.80
57576;DHT22;43412;-33.800;150.804;2022-11-23T04:18:09;32.10;64.00
57576;DHT22;43412;-33.800;150.804;2022-11-23T04:20:36;32.20;63.40
57576;DHT22;43412;-33.800;150.804;2022-11-23T04:23:03;31.70;63.30
57576;DHT22;43412;-33.800;150.804;2022-11-23T04:25:30;31.20;63.40
57576;DHT22;43412;-33.800;150.804;2022-11-23T04:27:56;30.90;65.00
57576;DHT22;43412;-33.800;150.804;2022-11-23T04:30:23;30.90;65.60
57576;DHT22;43412;-33.800;150.804;2022-11-23T04:32:50;31.20;66.10
57576;DHT22;43412;-33.800;150.804;2022-11-23T04:35:17;31.40;65.90
57576;DHT22;43412;-33.800;150.804;2022-11-23T04:37:44;31.70;65.50
57576;DHT22;43412;-33.800;150.804;2022-11-23T04:40:11;32.10;66.30
57576;DHT22;43412;-33.800;150.804;2022-11-23T04:42:38;32.30;64.00
57576;DHT22;43412;-33.800;150.804;2022-11-23T04:45:05;32.40;63.70
57576;DHT22;43412;-33.800;150.804;2022-11-23T04:47:32;32.60;64.80
57576;DHT22;43412;-33.800;150.804;2022-11-23T04:49:58;32.70;64.30
57576;DHT22;43412;-33.800;150.804;2022-11-23T04:52:25;32.60;62.80
57576;DHT22;43412;-33.800;150.804;2022-11-23T04:54:52;32.50;63.80
57576;DHT22;43412;-33.800;150.804;2022-11-23T04:57:18;32.40;63.80
57576;DHT22;43412;-33.800;150.804;2022-11-23T04:59:45;32.40;63.40
57576;DHT22;43412;-33.800;150.804;2022-11-23T05:02:12;32.20;63.20
57576;DHT22;43412;-33.800;150.804;2022-11-23T05:04:39;31.80;64.10
57576;DHT22;43412;-33.800;150.804;2022-11-23T05:07:05;31.70;64.80
57576;DHT22;43412;-33.800;150.804;2022-11-23T05:09:32;31.80;65.70
57576;DHT22;43412;-33.800;150.804;2022-11-23T05:11:59;32.00;65.80
57576;DHT22;43412;-33.800;150.804;2022-11-23T05:14:25;32.00;63.20
57576;DHT22;43412;-33.800;150.804;2022-11-23T05:16:52;31.80;62.50
57576;DHT22;43412;-33.800;150.804;2022-11-23T05:19:19;31.60;63.30
57576;DHT22;43412;-33.800;150.804;2022-11-23T05:21:46;31.60;64.50
57576;DHT22;43412;-33.800;150.804;2022-11-23T05:24:12;31.60;64.60
57576;DHT22;43412;-33.800;150.804;2022-11-23T05:26:39;31.50;64.20
57576;DHT22;43412;-33.800;150.804;2022-11-23T05:29:06;31.30;63.80
57576;DHT22;43412;-33.800;150.804;2022-11-23T05:31:33;31.20;64.50
57576;DHT22;43412;-33.800;150.804;2022-11-23T05:33:59;31.10;64.10
57576;DHT22;43412;-33.800;150.804;2022-11-23T05:36:26;30.90;62.90
57576;DHT22;43412;-33.800;150.804;2022-11-23T05:38:53;30.80;64.00
57576;DHT22;43412;-33.800;150.804;2022-11-23T05:41:20;30.60;64.50
57576;DHT22;43412;-33.800;150.804;2022-11-23T05:43:48;30.60;65.10
57576;DHT22;43412;-33.800;150.804;2022-11-23T05:46:18;30.50;65.40
57576;DHT22;43412;-33.800;150.804;2022-11-23T05:48:45;30.50;65.60
57576;DHT22;43412;-33.800;150.804;2022-11-23T05:51:12;30.50;65.00
57576;DHT22;43412;-33.800;150.804;2022-11-23T05:53:38;30.40;65.50
57576;DHT22;43412;-33.800;150.804;2022-11-23T05:56:05;30.40;65.50
57576;DHT22;43412;-33.800;150.804;2022-11-23T05:58:32;30.40;64.40
57576;DHT22;43412;-33.800;150.804;2022-11-23T06:00:59;30.30;65.80
57576;DHT22;43412;-33.800;150.804;2022-11-23T06:03:25;30.20;65.60
57576;DHT22;43412;-33.800;150.804;2022-11-23T06:05:52;30.10;64.80
57576;DHT22;43412;-33.800;150.804;2022-11-23T06:08:19;30.10;64.70
57576;DHT22;43412;-33.800;150.804;2022-11-23T06:10:46;30.00;66.20
57576;DHT22;43412;-33.800;150.804;2022-11-23T06:13:13;30.00;64.00
57576;DHT22;43412;-33.800;150.804;2022-11-23T06:15:39;29.90;64.30
57576;DHT22;43412;-33.800;150.804;2022-11-23T06:18:07;29.80;64.30
57576;DHT22;43412;-33.800;150.804;2022-11-23T06:20:34;29.70;65.00
57576;DHT22;43412;-33.800;150.804;2022-11-23T06:23:01;29.60;65.50
57576;DHT22;43412;-33.800;150.804;2022-11-23T06:25:27;29.60;65.10
57576;DHT22;43412;-33.800;150.804;2022-11-23T06:27:55;29.50;65.40
57576;DHT22;43412;-33.800;150.804;2022-11-23T06:30:23;29.30;65.20
57576;DHT22;43412;-33.800;150.804;2022-11-23T06:32:49;29.20;65.30
57576;DHT22;43412;-33.800;150.804;2022-11-23T06:35:16;29.10;65.80
57576;DHT22;43412;-33.800;150.804;2022-11-23T06:37:43;29.10;66.00
57576;DHT22;43412;-33.800;150.804;2022-11-23T06:40:10;29.00;65.50
57576;DHT22;43412;-33.800;150.804;2022-11-23T06:42:37;28.90;64.30
57576;DHT22;43412;-33.800;150.804;2022-11-23T06:45:04;28.80;64.10
57576;DHT22;43412;-33.800;150.804;2022-11-23T06:47:31;28.60;64.10
57576;DHT22;43412;-33.800;150.804;2022-11-23T06:49:58;28.50;65.10
57576;DHT22;43412;-33.800;150.804;2022-11-23T06:52:24;28.30;65.90
57576;DHT22;43412;-33.800;150.804;2022-11-23T06:54:51;28.20;65.20
57576;DHT22;43412;-33.800;150.804;2022-11-23T06:57:18;28.10;65.80
57576;DHT22;43412;-33.800;150.804;2022-11-23T06:59:44;28.00;66.10
57576;DHT22;43412;-33.800;150.804;2022-11-23T07:02:11;28.00;66.50
57576;DHT22;43412;-33.800;150.804;2022-11-23T07:04:39;27.90;66.50
57576;DHT22;43412;-33.800;150.804;2022-11-23T07:07:08;27.90;66.60
57576;DHT22;43412;-33.800;150.804;2022-11-23T07:09:35;27.90;66.10
57576;DHT22;43412;-33.800;150.804;2022-11-23T07:12:03;27.80;66.00
57576;DHT22;43412;-33.800;150.804;2022-11-23T07:14:29;27.70;66.10
57576;DHT22;43412;-33.800;150.804;2022-11-23T07:16:56;27.70;66.20
57576;DHT22;43412;-33.800;150.804;2022-11-23T07:19:23;27.60;66.10
57576;DHT22;43412;-33.800;150.804;2022-11-23T07:21:49;27.60;66.90
57576;DHT22;43412;-33.800;150.804;2022-11-23T07:24:16;27.50;67.10
57576;DHT22;43412;-33.800;150.804;2022-11-23T07:26:43;27.40;67.20
57576;DHT22;43412;-33.800;150.804;2022-11-23T07:29:09;27.40;67.80
57576;DHT22;43412;-33.800;150.804;2022-11-23T07:31:36;27.30;67.90
57576;DHT22;43412;-33.800;150.804;2022-11-23T07:34:03;27.20;67.60
57576;DHT22;43412;-33.800;150.804;2022-11-23T07:36:30;27.00;67.80
57576;DHT22;43412;-33.800;150.804;2022-11-23T07:38:57;27.00;68.30
57576;DHT22;43412;-33.800;150.804;2022-11-23T07:41:23;27.00;67.80
57576;DHT22;43412;-33.800;150.804;2022-11-23T07:43:52;26.80;68.20
57576;DHT22;43412;-33.800;150.804;2022-11-23T07:46:19;26.70;68.30
57576;DHT22;43412;-33.800;150.804;2022-11-23T07:48:45;26.70;68.40
57576;DHT22;43412;-33.800;150.804;2022-11-23T07:51:12;26.60;68.60
57576;DHT22;43412;-33.800;150.804;2022-11-23T07:53:39;26.50;68.70
57576;DHT22;43412;-33.800;150.804;2022-11-23T07:56:06;26.40;69.00
57576;DHT22;43412;-33.800;150.804;2022-11-23T07:58:33;26.30;69.40
57576;DHT22;43412;-33.800;150.804;2022-11-23T08:00:59;26.20;69.00
57576;DHT22;43412;-33.800;150.804;2022-11-23T08:03:26;26.00;69.50
57576;DHT22;43412;-33.800;150.804;2022-11-23T08:05:53;25.90;69.70
57576;DHT22;43412;-33.800;150.804;2022-11-23T08:08:20;25.80;69.90
57576;DHT22;43412;-33.800;150.804;2022-11-23T08:10:46;25.60;69.20
57576;DHT22;43412;-33.800;150.804;2022-11-23T08:13:13;25.50;69.40
57576;DHT22;43412;-33.800;150.804;2022-11-23T08:15:40;25.40;69.70
57576;DHT22;43412;-33.800;150.804;2022-11-23T08:18:07;25.30;70.10
57576;DHT22;43412;-33.800;150.804;2022-11-23T08:20:34;25.20;70.50
57576;DHT22;43412;-33.800;150.804;2022-11-23T08:23:01;25.00;70.70
57576;DHT22;43412;-33.800;150.804;2022-11-23T08:25:28;24.90;70.70
57576;DHT22;43412;-33.800;150.804;2022-11-23T08:27:59;24.80;71.10
57576;DHT22;43412;-33.800;150.804;2022-11-23T08:30:26;24.70;71.10
57576;DHT22;43412;-33.800;150.804;2022-11-23T08:32:53;24.60;71.40
57576;DHT22;43412;-33.800;150.804;2022-11-23T08:35:20;24.50;72.10
57576;DHT22;43412;-33.800;150.804;2022-11-23T08:37:47;24.40;72.10
57576;DHT22;43412;-33.800;150.804;2022-11-23T08:40:14;24.30;72.40
57576;DHT22;43412;-33.800;150.804;2022-11-23T08:42:40;24.20;72.80
57576;DHT22;43412;-33.800;150.804;2022-11-23T08:45:07;24.10;73.10
57576;DHT22;43412;-33.800;150.804;2022-11-23T08:47:34;24.00;73.70
57576;DHT22;43412;-33.800;150.804;2022-11-23T08:50:01;23.80;73.70
57576;DHT22;43412;-33.800;150.804;2022-11-23T08:52:28;23.70;74.10
57576;DHT22;43412;-33.800;150.804;2022-11-23T08:54:54;23.60;74.60
57576;DHT22;43412;-33.800;150.804;2022-11-23T08:57:21;23.60;74.80
57576;DHT22;43412;-33.800;150.804;2022-11-23T08:59:48;23.50;75.00
57576;DHT22;43412;-33.800;150.804;2022-11-23T09:02:14;23.40;75.60
57576;DHT22;43412;-33.800;150.804;2022-11-23T09:04:42;23.30;76.00
57576;DHT22;43412;-33.800;150.804;2022-11-23T09:07:09;23.20;76.30
57576;DHT22;43412;-33.800;150.804;2022-11-23T09:09:36;23.10;76.60
57576;DHT22;43412;-33.800;150.804;2022-11-23T09:12:03;22.90;76.90
57576;DHT22;43412;-33.800;150.804;2022-11-23T09:14:29;22.90;77.10
57576;DHT22;43412;-33.800;150.804;2022-11-23T09:16:56;22.80;77.40
57576;DHT22;43412;-33.800;150.804;2022-11-23T09:19:23;22.80;77.20
57576;DHT22;43412;-33.800;150.804;2022-11-23T09:21:50;22.70;77.30
57576;DHT22;43412;-33.800;150.804;2022-11-23T09:24:16;22.70;77.30
57576;DHT22;43412;-33.800;150.804;2022-11-23T09:26:43;22.60;77.30
57576;DHT22;43412;-33.800;150.804;2022-11-23T09:29:10;22.60;77.50
57576;DHT22;43412;-33.800;150.804;2022-11-23T09:31:37;22.50;77.90
57576;DHT22;43412;-33.800;150.804;2022-11-23T09:34:04;22.40;78.30
57576;DHT22;43412;-33.800;150.804;2022-11-23T09:36:30;22.40;78.50
57576;DHT22;43412;-33.800;150.804;2022-11-23T09:38:57;22.30;78.60
57576;DHT22;43412;-33.800;150.804;2022-11-23T09:49:15;22.00;79.20
57576;DHT22;43412;-33.800;150.804;2022-11-23T09:51:43;22.00;79.20
57576;DHT22;43412;-33.800;150.804;2022-11-23T09:56:55;21.90;79.70
57576;DHT22;43412;-33.800;150.804;2022-11-23T09:59:39;21.80;79.70
57576;DHT22;43412;-33.800;150.804;2022-11-23T10:02:14;21.80;79.80
57576;DHT22;43412;-33.800;150.804;2022-11-23T10:04:43;21.80;80.00
57576;DHT22;43412;-33.800;150.804;2022-11-23T10:20:34;21.50;80.40
57576;DHT22;43412;-33.800;150.804;2022-11-23T10:23:06;21.40;80.80
57576;DHT22;43412;-33.800;150.804;2022-11-23T10:25:41;21.30;81.00
57576;DHT22;43412;-33.800;150.804;2022-11-23T10:28:13;21.30;81.30
57576;DHT22;43412;-33.800;150.804;2022-11-23T10:30:40;21.20;81.30
57576;DHT22;43412;-33.800;150.804;2022-11-23T10:35:34;21.10;82.50
57576;DHT22;43412;-33.800;150.804;2022-11-23T10:38:13;21.00;82.40
57576;DHT22;43412;-33.800;150.804;2022-11-23T10:40:54;20.80;82.40
57576;DHT22;43412;-33.800;150.804;2022-11-23T10:43:24;20.80;82.70
57576;DHT22;43412;-33.800;150.804;2022-11-23T10:45:53;20.70;82.90
57576;DHT22;43412;-33.800;150.804;2022-11-23T10:48:37;20.70;82.80
57576;DHT22;43412;-33.800;150.804;2022-11-23T10:54:04;20.70;82.70
57576;DHT22;43412;-33.800;150.804;2022-11-23T10:56:32;20.70;82.70
57576;DHT22;43412;-33.800;150.804;2022-11-23T10:58:59;20.60;83.10
57576;DHT22;43412;-33.800;150.804;2022-11-23T11:01:26;20.50;83.10
57576;DHT22;43412;-33.800;150.804;2022-11-23T11:03:55;20.50;83.30
57576;DHT22;43412;-33.800;150.804;2022-11-23T11:08:50;20.40;83.90
57576;DHT22;43412;-33.800;150.804;2022-11-23T11:13:50;20.30;84.00
57576;DHT22;43412;-33.800;150.804;2022-11-23T11:16:19;20.30;84.20
57576;DHT22;43412;-33.800;150.804;2022-11-23T11:18:46;20.30;84.20
57576;DHT22;43412;-33.800;150.804;2022-11-23T11:21:23;20.20;84.80
57576;DHT22;43412;-33.800;150.804;2022-11-23T11:23:53;20.20;85.00
57576;DHT22;43412;-33.800;150.804;2022-11-23T11:26:21;20.10;85.50
57576;DHT22;43412;-33.800;150.804;2022-11-23T11:28:52;20.00;85.40
57576;DHT22;43412;-33.800;150.804;2022-11-23T11:31:42;20.00;85.60
57576;DHT22;43412;-33.800;150.804;2022-11-23T11:34:15;20.00;85.60
57576;DHT22;43412;-33.800;150.804;2022-11-23T11:36:49;19.90;85.40
57576;DHT22;43412;-33.800;150.804;2022-11-23T11:39:21;19.90;85.70
57576;DHT22;43412;-33.800;150.804;2022-11-23T11:41:49;19.90;86.00
57576;DHT22;43412;-33.800;150.804;2022-11-23T11:44:23;19.90;85.80
57576;DHT22;43412;-33.800;150.804;2022-11-23T11:46:55;19.80;86.60
57576;DHT22;43412;-33.800;150.804;2022-11-23T11:49:28;19.70;86.80
57576;DHT22;43412;-33.800;150.804;2022-11-23T11:52:19;19.60;87.00
57576;DHT22;43412;-33.800;150.804;2022-11-23T11:57:58;19.40;87.90
57576;DHT22;43412;-33.800;150.804;2022-11-23T12:00:17;19.30;87.90
57576;DHT22;43412;-33.800;150.804;2022-11-23T12:05:23;19.20;88.60
57576;DHT22;43412;-33.800;150.804;2022-11-23T12:07:54;19.10;88.80
57576;DHT22;43412;-33.800;150.804;2022-11-23T12:10:31;19.00;89.10
57576;DHT22;43412;-33.800;150.804;2022-11-23T12:12:59;18.90;90.10
57576;DHT22;43412;-33.800;150.804;2022-11-23T12:15:39;18.80;90.00
57576;DHT22;43412;-33.800;150.804;2022-11-23T12:28:39;18.50;90.90
57576;DHT22;43412;-33.800;150.804;2022-11-23T12:59:38;18.10;92.00
57576;DHT22;43412;-33.800;150.804;2022-11-23T13:02:10;18.00;92.20
57576;DHT22;43412;-33.800;150.804;2022-11-23T13:04:51;18.00;92.30
57576;DHT22;43412;-33.800;150.804;2022-11-23T13:07:34;18.00;92.40
57576;DHT22;43412;-33.800;150.804;2022-11-23T13:15:32;18.00;92.60
57576;DHT22;43412;-33.800;150.804;2022-11-23T13:18:15;17.90;92.50
57576;DHT22;43412;-33.800;150.804;2022-11-23T13:20:48;17.90;92.70
57576;DHT22;43412;-33.800;150.804;2022-11-23T13:23:21;17.90;93.20
57576;DHT22;43412;-33.800;150.804;2022-11-23T13:28:33;17.90;93.40
57576;DHT22;43412;-33.800;150.804;2022-11-23T13:33:47;17.90;93.90
57576;DHT22;43412;-33.800;150.804;2022-11-23T13:38:57;17.80;94.10
57576;DHT22;43412;-33.800;150.804;2022-11-23T13:49:34;17.50;94.40
57576;DHT22;43412;-33.800;150.804;2022-11-23T13:54:32;17.50;94.60
57576;DHT22;43412;-33.800;150.804;2022-11-23T13:57:02;17.50;94.60
57576;DHT22;43412;-33.800;150.804;2022-11-23T13:59:31;17.50;95.00
57576;DHT22;43412;-33.800;150.804;2022-11-23T14:02:00;17.50;95.10
57576;DHT22;43412;-33.800;150.804;2022-11-23T14:04:37;17.50;95.00
57576;DHT22;43412;-33.800;150.804;2022-11-23T14:15:25;17.40;95.80
57576;DHT22;43412;-33.800;150.804;2022-11-23T14:18:04;17.40;96.00
57576;DHT22;43412;-33.800;150.804;2022-11-23T14:30:54;17.20;97.40
57576;DHT22;43412;-33.800;150.804;2022-11-23T14:36:05;17.20;97.60
57576;DHT22;43412;-33.800;150.804;2022-11-23T14:38:53;17.10;97.70
57576;DHT22;43412;-33.800;150.804;2022-11-23T14:41:22;17.20;98.30
57576;DHT22;43412;-33.800;150.804;2022-11-23T14:43:50;17.20;98.20
57576;DHT22;43412;-33.800;150.804;2022-11-23T14:46:17;17.30;98.20
57576;DHT22;43412;-33.800;150.804;2022-11-23T14:48:45;17.40;98.50
57576;DHT22;43412;-33.800;150.804;2022-11-23T14:51:14;17.40;98.70
57576;DHT22;43412;-33.800;150.804;2022-11-23T14:53:42;17.40;99.00
57576;DHT22;43412;-33.800;150.804;2022-11-23T14:56:25;17.30;99.30
57576;DHT22;43412;-33.800;150.804;2022-11-23T14:58:57;17.30;99.50
57576;DHT22;43412;-33.800;150.804;2022-11-23T15:01:25;17.20;99.80
57576;DHT22;43412;-33.800;150.804;2022-11-23T15:03:56;17.20;99.90
57576;DHT22;43412;-33.800;150.804;2022-11-23T15:06:28;17.20;99.90
57576;DHT22;43412;-33.800;150.804;2022-11-23T15:09:02;17.10;99.90
57576;DHT22;43412;-33.800;150.804;2022-11-23T15:11:31;17.10;99.90
57576;DHT22;43412;-33.800;150.804;2022-11-23T15:14:00;17.00;99.90
57576;DHT22;43412;-33.800;150.804;2022-11-23T15:16:37;16.90;99.90
57576;DHT22;43412;-33.800;150.804;2022-11-23T15:21:49;16.90;99.90
57576;DHT22;43412;-33.800;150.804;2022-11-23T15:24:23;16.80;99.90
57576;DHT22;43412;-33.800;150.804;2022-11-23T15:26:50;16.80;99.90
57576;DHT22;43412;-33.800;150.804;2022-11-23T15:29:31;16.70;99.90
57576;DHT22;43412;-33.800;150.804;2022-11-23T15:31:57;16.70;99.90
57576;DHT22;43412;-33.800;150.804;2022-11-23T15:34:24;16.60;99.90
57576;DHT22;43412;-33.800;150.804;2022-11-23T15:36:51;16.50;99.90
57576;DHT22;43412;-33.800;150.804;2022-11-23T15:39:20;16.40;99.90
57576;DHT22;43412;-33.800;150.804;2022-11-23T15:41:48;16.40;99.90
57576;DHT22;43412;-33.800;150.804;2022-11-23T15:44:25;16.40;99.90
57576;DHT22;43412;-33.800;150.804;2022-11-23T15:46:53;16.30;99.90
57576;DHT22;43412;-33.800;150.804;2022-11-23T15:49:20;16.30;99.90
57576;DHT22;43412;-33.800;150.804;2022-11-23T15:51:47;16.20;99.90
57576;DHT22;43412;-33.800;150.804;2022-11-23T15:54:55;16.20;99.90
57576;DHT22;43412;-33.800;150.804;2022-11-23T15:57:17;16.20;99.90
57576;DHT22;43412;-33.800;150.804;2022-11-23T15:59:48;16.20;99.90
57576;DHT22;43412;-33.800;150.804;2022-11-23T16:02:17;16.10;99.90
57576;DHT22;43412;-33.800;150.804;2022-11-23T16:04:46;16.00;99.90
57576;DHT22;43412;-33.800;150.804;2022-11-23T16:07:22;16.00;99.90
57576;DHT22;43412;-33.800;150.804;2022-11-23T16:12:20;15.80;99.90
57576;DHT22;43412;-33.800;150.804;2022-11-23T16:14:47;15.70;99.90
57576;DHT22;43412;-33.800;150.804;2022-11-23T16:17:20;15.70;99.90
57576;DHT22;43412;-33.800;150.804;2022-11-23T16:19:49;15.60;99.90
57576;DHT22;43412;-33.800;150.804;2022-11-23T16:22:18;15.60;99.90
57576;DHT22;43412;-33.800;150.804;2022-11-23T16:24:46;15.50;99.90
57576;DHT22;43412;-33.800;150.804;2022-11-23T16:27:15;15.50;99.90
57576;DHT22;43412;-33.800;150.804;2022-11-23T16:29:42;15.50;99.90
57576;DHT22;43412;-33.800;150.804;2022-11-23T16:32:19;15.50;99.90
57576;DHT22;43412;-33.800;150.804;2022-11-23T16:34:46;15.40;99.90
57576;DHT22;43412;-33.800;150.804;2022-11-23T16:37:13;15.40;99.90
57576;DHT22;43412;-33.800;150.804;2022-11-23T16:39:40;15.30;99.90
57576;DHT22;43412;-33.800;150.804;2022-11-23T16:42:10;15.30;99.90
57576;DHT22;43412;-33.800;150.804;2022-11-23T16:44:37;15.30;99.90
57576;DHT22;43412;-33.800;150.804;2022-11-23T16:49:42;15.20;99.90
57576;DHT22;43412;-33.800;150.804;2022-11-23T16:52:09;15.20;99.90
57576;DHT22;43412;-33.800;150.804;2022-11-23T16:54:37;15.10;99.90
57576;DHT22;43412;-33.800;150.804;2022-11-23T16:57:03;15.10;99.90
57576;DHT22;43412;-33.800;150.804;2022-11-23T16:59:30;15.10;99.90
57576;DHT22;43412;-33.800;150.804;2022-11-23T17:01:57;15.10;99.90
57576;DHT22;43412;-33.800;150.804;2022-11-23T17:04:24;15.00;99.90
57576;DHT22;43412;-33.800;150.804;2022-11-23T17:06:51;15.00;99.90
57576;DHT22;43412;-33.800;150.804;2022-11-23T17:09:17;14.90;99.90
57576;DHT22;43412;-33.800;150.804;2022-11-23T17:11:45;14.90;99.90
57576;DHT22;43412;-33.800;150.804;2022-11-23T17:14:13;15.00;99.90